Time;durP1;ratioP1;P1;durP2;ratioP2;P2;SDS_P1;SDS_P2;PMS_P1;PMS_P2;Temp;Humidity;BMP_temperature;BMP_pressure;BME280_temperature;BME280_humidity;BME280_pressure;Samples;Min_cycle;Max_cycle;Signal;HPM_P1;HPM_P2
2022/03/07 00:01:50;;;;;;;;;;;;;;;12.10;41.29;101604.78;4970184;28;112834;-63
2022/03/07 00:04:17;;;;;;;;;;;;;;;12.11;41.17;101608.34;4980602;28;127720;-62
2022/03/07 00:06:43;;;;;;;;;;;;;;;12.10;41.09;101615.59;4981885;27;99088;-69
2022/03/07 00:09:09;;;;;;;;;;;;;;;12.10;41.39;101607.50;4981504;28;119389;-69
2022/03/07 00:11:36;;;;;;;;;;;;;;;12.09;41.22;101616.66;4968524;28;98466;-70
2022/03/07 00:14:02;;;;;;;;;;;;;;;12.09;41.44;101613.16;4963296;28;126649;-70
2022/03/07 00:16:28;;;;;;;;;;;;;;;12.09;41.25;101618.56;4980929;28;98900;-63
2022/03/07 00:18:54;;;;;;;;;;;;;;;12.08;41.46;101606.94;4963933;28;98839;-63
2022/03/07 00:21:20;;;;;;;;;;;;;;;12.08;41.30;101615.03;4979861;28;116691;-69
2022/03/07 00:23:46;;;;;;;;;;;;;;;12.08;41.46;101615.03;4980707;28;99998;-63
2022/03/07 00:26:12;;;;;;;;;;;;;;;12.07;41.32;101615.31;4962141;28;111539;-63
2022/03/07 00:28:39;;;;;;;;;;;;;;;12.07;41.07;101615.31;4981437;28;98048;-69
2022/03/07 00:31:05;;;;;;;;;;;;;;;12.06;41.16;101614.47;4969363;28;97814;-70
2022/03/07 00:33:31;;;;;;;;;;;;;;;12.06;41.48;101617.16;4961162;28;98495;-71
2022/03/07 00:35:57;;;;;;;;;;;;;;;12.06;41.33;101617.16;4961189;28;99447;-63
2022/03/07 00:38:23;;;;;;;;;;;;;;;12.04;41.81;101619.31;4961485;28;116279;-63
2022/03/07 00:40:49;;;;;;;;;;;;;;;12.04;41.42;101613.91;4967885;28;97927;-69
2022/03/07 00:43:15;;;;;;;;;;;;;;;12.04;41.26;101611.19;4962111;28;117620;-69
2022/03/07 00:45:41;;;;;;;;;;;;;;;12.03;41.29;101614.97;4957773;28;100555;-63
2022/03/07 00:48:07;;;;;;;;;;;;;;;12.03;41.57;101606.88;4942196;28;125951;-63
2022/03/07 00:50:33;;;;;;;;;;;;;;;12.02;41.35;101614.16;4960744;28;117046;-69
2022/03/07 00:52:59;;;;;;;;;;;;;;;12.02;41.57;101613.31;4943300;28;98492;-70
2022/03/07 00:55:25;;;;;;;;;;;;;;;12.02;41.35;101610.63;4960989;28;98226;-69
2022/03/07 00:57:51;;;;;;;;;;;;;;;12.01;41.23;101607.09;4960702;28;128143;-64
2022/03/07 01:00:17;;;;;;;;;;;;;;;12.01;41.57;101603.59;4976233;28;117516;-63
2022/03/07 01:02:43;;;;;;;;;;;;;;;12.01;41.21;101606.28;4981511;28;100969;-63
2022/03/07 01:05:09;;;;;;;;;;;;;;;12.01;41.13;101614.41;4978476;28;127199;-63
2022/03/07 01:07:35;;;;;;;;;;;;;;;12.00;41.53;101607.38;4980503;28;127955;-70
2022/03/07 01:10:01;;;;;;;;;;;;;;;12.00;41.59;101600.06;4980119;28;116094;-71
2022/03/07 01:12:27;;;;;;;;;;;;;;;12.01;41.37;101609.81;4980828;28;98405;-69
2022/03/07 01:14:53;;;;;;;;;;;;;;;12.00;41.58;101610.88;4978633;28;128774;-63
2022/03/07 01:17:19;;;;;;;;;;;;;;;11.99;41.31;101603.03;4961374;28;128112;-63
2022/03/07 01:19:45;;;;;;;;;;;;;;;11.99;41.67;101603.84;4978141;27;117884;-63
2022/03/07 01:22:10;;;;;;;;;;;;;;;11.98;41.82;101595.97;4966144;28;118175;-63
2022/03/07 01:24:37;;;;;;;;;;;;;;;11.98;41.41;101596.78;4979909;28;108755;-70
2022/03/07 01:27:04;;;;;;;;;;;;;;;11.98;41.64;101591.38;4964428;28;98047;-63
2022/03/07 01:29:30;;;;;;;;;;;;;;;11.98;41.37;101596.78;4965699;28;98113;-63
2022/03/07 01:31:55;;;;;;;;;;;;;;;11.98;41.68;101596.78;4941580;28;128967;-71
2022/03/07 01:34:21;;;;;;;;;;;;;;;11.98;41.16;101593.28;4959496;28;128211;-63
2022/03/07 01:36:47;;;;;;;;;;;;;;;11.98;41.75;101595.97;4974018;28;126520;-63
2022/03/07 01:39:15;;;;;;;;;;;;;;;11.97;41.72;101591.66;4961601;28;97997;-63
2022/03/07 01:41:41;;;;;;;;;;;;;;;11.96;41.48;101598.94;4975014;28;128164;-68
2022/03/07 01:44:20;;;;;;;;;;;;;;;11.97;41.80;101589.75;4960366;28;99522;-69
2022/03/07 01:46:46;;;;;;;;;;;;;;;11.96;41.48;101588.13;4961180;28;97856;-68
2022/03/07 01:49:12;;;;;;;;;;;;;;;11.95;41.56;101588.38;4959891;28;117802;-63
2022/03/07 01:51:42;;;;;;;;;;;;;;;11.95;41.45;101583.00;4961107;28;104530;-70
2022/03/07 01:54:10;;;;;;;;;;;;;;;11.95;41.41;101588.38;4960873;28;98778;-68
2022/03/07 01:56:36;;;;;;;;;;;;;;;11.95;41.64;101585.69;4959709;28;98127;-63
2022/03/07 01:59:03;;;;;;;;;;;;;;;11.94;41.95;101582.13;4961035;28;98021;-69
2022/03/07 02:01:29;;;;;;;;;;;;;;;11.93;41.66;101575.09;4960666;28;98774;-70
2022/03/07 02:03:55;;;;;;;;;;;;;;;11.94;41.27;101575.91;4958949;28;123152;-63
2022/03/07 02:06:21;;;;;;;;;;;;;;;11.93;41.41;101574.28;4960728;28;97955;-70
2022/03/07 02:08:48;;;;;;;;;;;;;;;11.92;41.40;101573.47;4959748;28;118435;-63
2022/03/07 02:11:14;;;;;;;;;;;;;;;11.91;41.60;101574.56;4969439;28;98261;-68
2022/03/07 02:13:40;;;;;;;;;;;;;;;11.91;41.65;101571.03;4959947;28;115022;-69
2022/03/07 02:16:06;;;;;;;;;;;;;;;11.90;41.52;101578.31;4978573;28;128159;-70
2022/03/07 02:18:32;;;;;;;;;;;;;;;11.89;41.33;101565.88;4979811;28;97834;-63
2022/03/07 02:21:03;;;;;;;;;;;;;;;11.88;41.70;101569.66;4971490;28;98520;-68
2022/03/07 02:23:29;;;;;;;;;;;;;;;11.88;41.52;101564.25;4960396;28;120631;-70
2022/03/07 02:25:55;;;;;;;;;;;;;;;11.88;41.50;101560.72;4957820;28;127596;-69
2022/03/07 02:28:21;;;;;;;;;;;;;;;11.87;41.59;101559.06;4941640;28;118160;-62
2022/03/07 02:30:49;;;;;;;;;;;;;;;11.85;41.40;101553.94;4936686;28;127894;-62
2022/03/07 02:33:15;;;;;;;;;;;;;;;11.87;42.04;101564.47;4952379;28;121953;-68
2022/03/07 02:35:41;;;;;;;;;;;;;;;11.87;41.58;101556.38;4980160;28;127199;-63
2022/03/07 02:38:17;;;;;;;;;;;;;;;11.86;41.67;101555.56;4983880;28;109040;-63
2022/03/07 02:40:44;;;;;;;;;;;;;;;11.85;41.52;101556.63;4964410;28;99697;-68
2022/03/07 02:43:09;;;;;;;;;;;;;;;11.85;41.83;101564.72;4975067;28;98423;-68
2022/03/07 02:45:35;;;;;;;;;;;;;;;11.84;41.26;101568.50;4949615;28;100088;-68
2022/03/07 02:48:01;;;;;;;;;;;;;;;11.85;41.84;101562.03;4982658;28;116720;-70
2022/03/07 02:50:27;;;;;;;;;;;;;;;11.85;41.88;101575.53;4979030;28;128197;-63
2022/03/07 02:52:53;;;;;;;;;;;;;;;11.84;41.68;101567.69;4962142;28;99327;-63
2022/03/07 02:55:19;;;;;;;;;;;;;;;11.83;41.60;101569.59;4970382;28;98260;-63
2022/03/07 02:57:45;;;;;;;;;;;;;;;11.83;41.84;101557.91;4983284;28;97978;-63
2022/03/07 03:00:11;;;;;;;;;;;;;;;11.82;41.66;101567.91;4981486;28;127524;-63
2022/03/07 03:02:37;;;;;;;;;;;;;;;11.83;41.82;101563.31;4967124;28;101193;-68
2022/03/07 03:05:03;;;;;;;;;;;;;;;11.82;41.92;101561.69;4961273;28;128050;-68
2022/03/07 03:07:29;;;;;;;;;;;;;;;11.81;41.65;101563.56;4962157;28;111724;-68
2022/03/07 03:09:55;;;;;;;;;;;;;;;11.80;41.57;101565.44;4963242;28;128050;-63
2022/03/07 03:12:24;;;;;;;;;;;;;;;11.80;42.03;101568.16;4981626;28;98921;-63
2022/03/07 03:14:50;;;;;;;;;;;;;;;11.80;41.55;101568.16;4981811;28;98163;-63
2022/03/07 03:17:16;;;;;;;;;;;;;;;11.80;41.89;101557.34;4980955;28;116701;-68
2022/03/07 03:19:42;;;;;;;;;;;;;;;11.80;41.63;101557.34;4980447;28;127422;-69
2022/03/07 03:22:08;;;;;;;;;;;;;;;11.80;41.59;101567.34;4981189;28;127132;-63
2022/03/07 03:24:34;;;;;;;;;;;;;;;11.79;41.88;101563.00;4980988;28;127376;-63
2022/03/07 03:27:00;;;;;;;;;;;;;;;11.80;41.53;101559.25;4981759;28;116904;-63
2022/03/07 03:29:26;;;;;;;;;;;;;;;11.80;41.64;101551.13;4980209;28;98919;-68
2022/03/07 03:31:52;;;;;;;;;;;;;;;11.78;41.66;101551.38;4944036;28;128811;-69
2022/03/07 03:34:18;;;;;;;;;;;;;;;11.80;42.02;101556.53;4975771;28;127818;-68
2022/03/07 03:36:43;;;;;;;;;;;;;;;11.79;41.59;101552.22;4981637;28;116404;-63
2022/03/07 03:39:09;;;;;;;;;;;;;;;11.79;41.40;101552.22;4982497;28;113967;-63
2022/03/07 03:41:36;;;;;;;;;;;;;;;11.78;41.57;101555.94;4967597;28;127441;-69
2022/03/07 03:44:02;;;;;;;;;;;;;;;11.78;41.89;101550.56;4962146;28;98048;-69
2022/03/07 03:46:28;;;;;;;;;;;;;;;11.77;41.92;101552.44;4960507;28;118207;-68
2022/03/07 03:48:54;;;;;;;;;;;;;;;11.77;41.60;101563.25;4962530;28;98607;-63
2022/03/07 03:51:19;;;;;;;;;;;;;;;11.77;41.89;101557.84;4962484;28;98029;-63
2022/03/07 03:53:45;;;;;;;;;;;;;;;11.79;41.98;101565.72;4954601;28;126138;-70
2022/03/07 03:56:11;;;;;;;;;;;;;;;11.75;41.74;101557.28;4980997;28;117409;-63
2022/03/07 03:58:37;;;;;;;;;;;;;;;11.76;41.77;101558.09;4970042;28;128120;-69
2022/03/07 04:01:03;;;;;;;;;;;;;;;11.75;42.12;101556.44;4942944;28;126860;-70
2022/03/07 04:03:30;;;;;;;;;;;;;;;11.75;41.59;101557.28;4961663;28;117421;-63
2022/03/07 04:05:56;;;;;;;;;;;;;;;11.75;41.84;101562.69;4968964;28;98048;-68
2022/03/07 04:08:22;;;;;;;;;;;;;;;11.75;41.89;101569.94;4981090;28;99399;-68
2022/03/07 04:10:48;;;;;;;;;;;;;;;11.75;42.12;101564.53;4971318;28;98094;-68
2022/03/07 04:13:14;;;;;;;;;;;;;;;11.74;42.08;101563.72;4953601;28;127505;-63
2022/03/07 04:15:40;;;;;;;;;;;;;;;11.75;42.00;101559.16;4941958;28;99757;-68
2022/03/07 04:18:06;;;;;;;;;;;;;;;11.73;41.45;101558.59;4962787;28;98027;-63
2022/03/07 04:20:33;;;;;;;;;;;;;;;11.73;42.18;101559.41;4963364;28;98258;-69
2022/03/07 04:23:00;;;;;;;;;;;;;;;11.73;41.87;101561.28;4966980;28;97978;-68
2022/03/07 04:25:25;;;;;;;;;;;;;;;11.72;42.09;101559.66;4958710;28;102825;-69
2022/03/07 04:27:51;;;;;;;;;;;;;;;11.72;42.04;101559.66;4976610;28;127968;-63
2022/03/07 04:30:17;;;;;;;;;;;;;;;11.71;41.92;101566.09;4960115;28;126957;-63
2022/03/07 04:32:44;;;;;;;;;;;;;;;11.70;41.98;101561.78;4962866;28;113578;-68
2022/03/07 04:35:11;;;;;;;;;;;;;;;11.68;42.13;101566.63;4962434;28;97834;-70
2022/03/07 04:37:40;;;;;;;;;;;;;;;11.67;41.79;101571.22;4979539;28;98312;-69
2022/03/07 04:40:13;;;;;;;;;;;;;;;11.67;42.27;101570.38;4980860;28;99085;-63
2022/03/07 04:42:43;;;;;;;;;;;;;;;11.66;42.13;101574.97;4963206;28;98092;-63
2022/03/07 04:45:10;;;;;;;;;;;;;;;11.66;42.06;101577.66;4973954;28;98000;-63
2022/03/07 04:47:36;;;;;;;;;;;;;;;11.64;42.28;101585.22;4962224;28;98332;-63
2022/03/07 04:50:03;;;;;;;;;;;;;;;11.64;41.81;101587.91;4960794;28;98254;-68
2022/03/07 04:52:29;;;;;;;;;;;;;;;11.63;41.83;101583.59;4960918;28;111545;-63
2022/03/07 04:54:55;;;;;;;;;;;;;;;11.62;42.23;101589.22;4965687;28;97870;-63
2022/03/07 04:57:21;;;;;;;;;;;;;;;11.61;42.33;101588.41;4960280;28;128969;-68
2022/03/07 04:59:47;;;;;;;;;;;;;;;11.61;41.82;101592.97;4959861;28;127712;-69
2022/03/07 05:02:13;;;;;;;;;;;;;;;11.61;41.87;101592.97;4960151;28;128145;-69
2022/03/07 05:04:40;;;;;;;;;;;;;;;11.59;42.02;101595.91;4960565;28;97826;-69
2022/03/07 05:07:06;;;;;;;;;;;;;;;11.60;41.73;101594.06;4959698;28;97910;-68
2022/03/07 05:09:32;;;;;;;;;;;;;;;11.59;41.70;101597.81;4980944;28;98491;-68
2022/03/07 05:11:58;;;;;;;;;;;;;;;11.60;41.87;101600.28;4963143;28;106973;-63
2022/03/07 05:14:24;;;;;;;;;;;;;;;11.60;42.14;101599.47;4960324;28;111750;-62
2022/03/07 05:16:50;;;;;;;;;;;;;;;11.60;42.14;101602.16;4956727;28;128118;-68
2022/03/07 05:19:16;;;;;;;;;;;;;;;11.60;41.71;101608.38;4959914;28;126895;-68
2022/03/07 05:21:42;;;;;;;;;;;;;;;11.60;42.13;101604.88;4960312;28;98455;-69
2022/03/07 05:24:09;;;;;;;;;;;;;;;11.59;41.94;101604.00;4972656;28;99283;-63
2022/03/07 05:26:35;;;;;;;;;;;;;;;11.59;42.25;101606.72;4979884;28;99282;-68
2022/03/07 05:29:01;;;;;;;;;;;;;;;11.59;42.25;101608.59;4981384;28;98292;-69
2022/03/07 05:31:27;;;;;;;;;;;;;;;11.59;41.87;101605.91;4968023;28;98107;-69
2022/03/07 05:33:53;;;;;;;;;;;;;;;11.58;42.39;101607.78;4972526;28;97775;-63
2022/03/07 05:36:19;;;;;;;;;;;;;;;11.59;42.18;101603.19;4979256;28;98664;-68
2022/03/07 05:38:44;;;;;;;;;;;;;;;11.59;42.01;101608.59;4979391;28;128486;-63
2022/03/07 05:41:10;;;;;;;;;;;;;;;11.59;41.86;101608.59;4979115;28;125528;-63
2022/03/07 05:43:36;;;;;;;;;;;;;;;11.58;41.95;101610.50;4967886;28;97846;-62
2022/03/07 05:46:02;;;;;;;;;;;;;;;11.58;42.04;101613.19;4970612;27;123017;-62
2022/03/07 05:48:28;;;;;;;;;;;;;;;11.60;42.37;101612.97;4975024;28;127401;-62
2022/03/07 05:50:54;;;;;;;;;;;;;;;11.60;41.67;101621.06;4969158;28;127495;-62
2022/03/07 05:53:22;;;;;;;;;;;;;;;11.60;42.15;101616.47;4974505;28;109536;-68
2022/03/07 05:55:52;;;;;;;;;;;;;;;11.59;41.75;101614.81;4939297;28;101081;-69
2022/03/07 05:58:18;;;;;;;;;;;;;;;11.61;41.80;101614.59;4957065;28;98396;-62
2022/03/07 06:00:44;;;;;;;;;;;;;;;11.60;42.25;101619.19;4972529;27;126619;-69
2022/03/07 06:03:11;;;;;;;;;;;;;;;11.61;42.00;101620.00;4974448;28;116968;-62
2022/03/07 06:05:37;;;;;;;;;;;;;;;11.61;41.93;101623.50;4939439;28;98264;-68
2022/03/07 06:08:04;;;;;;;;;;;;;;;11.63;41.77;101623.25;4961853;28;98754;-67
2022/03/07 06:10:30;;;;;;;;;;;;;;;11.63;41.84;101617.84;4987236;27;97938;-68
2022/03/07 06:12:56;;;;;;;;;;;;;;;11.65;41.62;101629.25;4963743;28;117513;-67
2022/03/07 06:15:22;;;;;;;;;;;;;;;11.68;41.83;101634.97;4958252;28;128373;-63
2022/03/07 06:17:51;;;;;;;;;;;;;;;11.69;42.27;101635.78;4963998;28;102058;-63
2022/03/07 06:20:21;;;;;;;;;;;;;;;11.72;42.11;101632.59;4966710;28;98166;-63
2022/03/07 06:22:47;;;;;;;;;;;;;;;11.73;41.96;101631.53;4976904;28;98059;-68
2022/03/07 06:25:13;;;;;;;;;;;;;;;11.75;41.98;101637.47;4972332;28;98566;-69
2022/03/07 06:27:39;;;;;;;;;;;;;;;11.80;41.58;101637.56;4984049;28;98257;-63
2022/03/07 06:30:05;;;;;;;;;;;;;;;11.84;41.56;101640.63;4982469;28;97892;-63
2022/03/07 06:32:31;;;;;;;;;;;;;;;11.89;41.99;101644.22;4963504;28;108766;-63
2022/03/07 06:34:57;;;;;;;;;;;;;;;11.97;41.75;101642.97;4961996;28;113564;-68
2022/03/07 06:37:24;;;;;;;;;;;;;;;12.03;41.59;101644.72;4972239;28;128262;-63
2022/03/07 06:39:49;;;;;;;;;;;;;;;12.09;41.62;101642.88;4980166;28;98193;-69
2022/03/07 06:42:15;;;;;;;;;;;;;;;12.12;41.89;101632.41;4976233;27;105331;-70
2022/03/07 06:44:41;;;;;;;;;;;;;;;12.17;41.82;101640.56;4973215;28;128054;-67
2022/03/07 06:47:07;;;;;;;;;;;;;;;12.21;42.03;101640.88;4965319;28;128615;-62
2022/03/07 06:49:34;;;;;;;;;;;;;;;12.25;41.87;101647.44;4961113;28;119235;-67
2022/03/07 06:52:00;;;;;;;;;;;;;;;12.28;41.66;101641.53;4960918;28;108886;-62
2022/03/07 06:54:25;;;;;;;;;;;;;;;12.34;41.68;101647.81;4972656;28;128795;-62
2022/03/07 06:56:51;;;;;;;;;;;;;;;12.43;41.81;101649.84;4979376;28;129513;-67
2022/03/07 06:59:17;;;;;;;;;;;;;;;12.49;41.91;101646.13;4981904;28;126887;-62
2022/03/07 07:01:43;;;;;;;;;;;;;;;12.55;41.97;101643.50;4967729;28;118070;-62
2022/03/07 07:04:09;;;;;;;;;;;;;;;12.61;41.86;101645.16;4962262;28;127883;-69
2022/03/07 07:06:35;;;;;;;;;;;;;;;12.64;41.68;101637.38;4961974;28;128130;-63
2022/03/07 07:09:01;;;;;;;;;;;;;;;12.70;41.90;101638.28;4962443;28;125766;-63
2022/03/07 07:11:27;;;;;;;;;;;;;;;12.78;41.94;101646.75;4956208;28;98502;-63
2022/03/07 07:13:53;;;;;;;;;;;;;;;12.84;41.95;101639.50;4962189;28;128056;-63
2022/03/07 07:16:19;;;;;;;;;;;;;;;12.92;41.92;101641.75;4934608;28;128223;-63
2022/03/07 07:18:45;;;;;;;;;;;;;;;13.05;41.94;101642.41;4964029;28;97909;-69
2022/03/07 07:21:11;;;;;;;;;;;;;;;13.08;41.94;101628.38;4962847;28;106874;-69
2022/03/07 07:23:37;;;;;;;;;;;;;;;13.13;42.02;101626.53;4982472;28;98332;-63
2022/03/07 07:26:04;;;;;;;;;;;;;;;13.19;42.04;101632.81;4980246;28;124418;-68
2022/03/07 07:28:30;;;;;;;;;;;;;;;13.27;41.91;101629.66;4963747;28;98658;-63
2022/03/07 07:30:56;;;;;;;;;;;;;;;13.42;42.06;101627.09;4980609;28;118247;-63
2022/03/07 07:33:22;;;;;;;;;;;;;;;13.57;41.93;101633.72;4982232;28;99372;-69
2022/03/07 07:35:47;;;;;;;;;;;;;;;13.73;41.75;101643.59;4979796;28;128167;-68
2022/03/07 07:38:13;;;;;;;;;;;;;;;13.85;41.88;101646.13;4981776;28;98319;-68
2022/03/07 07:40:39;;;;;;;;;;;;;;;13.94;41.59;101650.78;4982628;28;117062;-69
2022/03/07 07:43:05;;;;;;;;;;;;;;;14.05;41.76;101656.28;4968744;28;98593;-63
2022/03/07 07:45:31;;;;;;;;;;;;;;;14.18;41.60;101659.31;4960262;28;127497;-63
2022/03/07 07:47:59;;;;;;;;;;;;;;;14.36;41.91;101659.97;4975631;28;117509;-63
2022/03/07 07:50:25;;;;;;;;;;;;;;;14.56;41.35;101662.00;4964745;28;97888;-68
2022/03/07 07:52:51;;;;;;;;;;;;;;;14.76;41.59;101664.78;4961956;28;120543;-68
2022/03/07 07:55:17;;;;;;;;;;;;;;;14.97;41.41;101663.78;4961707;28;98815;-63
2022/03/07 07:57:43;;;;;;;;;;;;;;;15.22;41.07;101663.00;4961686;28;110616;-63
2022/03/07 08:00:10;;;;;;;;;;;;;;;15.48;41.21;101657.56;4942861;28;117179;-63
2022/03/07 08:02:36;;;;;;;;;;;;;;;15.55;41.09;101660.84;4962768;28;98387;-63
2022/03/07 08:05:02;;;;;;;;;;;;;;;16.00;40.98;101655.69;4960063;28;98319;-68
2022/03/07 08:07:28;;;;;;;;;;;;;;;16.17;41.02;101654.28;4980837;28;112640;-68
2022/03/07 08:09:54;;;;;;;;;;;;;;;16.49;40.58;101655.78;4981804;28;97774;-63
2022/03/07 08:12:20;;;;;;;;;;;;;;;16.72;40.60;101659.78;4972085;28;98230;-63
2022/03/07 08:14:46;;;;;;;;;;;;;;;17.39;40.03;101660.22;4973344;28;126832;-63
2022/03/07 08:17:12;;;;;;;;;;;;;;;17.40;40.19;101657.19;4961445;28;117369;-68
2022/03/07 08:19:38;;;;;;;;;;;;;;;17.82;39.79;101653.06;4962093;28;97727;-68
2022/03/07 08:22:04;;;;;;;;;;;;;;;18.23;39.53;101649.09;4960444;28;117039;-69
2022/03/07 08:24:30;;;;;;;;;;;;;;;19.58;38.05;101657.59;4957623;28;128115;-63
2022/03/07 08:26:57;;;;;;;;;;;;;;;19.82;38.06;101651.22;4979805;28;104971;-69
2022/03/07 08:29:24;;;;;;;;;;;;;;;20.60;37.38;101652.19;4981744;27;98313;-64
2022/03/07 08:31:50;;;;;;;;;;;;;;;22.23;35.70;101652.88;4981242;28;99117;-63
2022/03/07 08:34:16;;;;;;;;;;;;;;;21.28;37.41;101653.91;4971274;28;128067;-64
2022/03/07 08:36:41;;;;;;;;;;;;;;;23.35;35.23;101651.44;4973707;28;98480;-69
2022/03/07 08:39:07;;;;;;;;;;;;;;;25.66;32.87;101648.84;4981107;28;117230;-68
2022/03/07 08:41:34;;;;;;;;;;;;;;;26.38;32.73;101657.56;4974762;28;127950;-64
2022/03/07 08:44:00;;;;;;;;;;;;;;;28.21;31.38;101665.50;4953426;28;99500;-64
2022/03/07 08:46:26;;;;;;;;;;;;;;;29.04;31.46;101658.75;4967146;28;115035;-64
2022/03/07 08:48:52;;;;;;;;;;;;;;;27.68;33.30;101662.97;4943858;28;97899;-63
2022/03/07 08:51:18;;;;;;;;;;;;;;;30.48;30.52;101657.34;4961192;28;128141;-64
2022/03/07 08:53:44;;;;;;;;;;;;;;;29.71;31.56;101650.13;4981710;28;100236;-68
2022/03/07 08:56:10;;;;;;;;;;;;;;;31.95;29.77;101659.09;4980167;28;119953;-69
2022/03/07 08:58:36;;;;;;;;;;;;;;;33.68;28.37;101649.22;4962799;28;98049;-64
2022/03/07 09:01:02;;;;;;;;;;;;;;;35.01;27.98;101655.41;4972388;28;98430;-64
2022/03/07 09:03:28;;;;;;;;;;;;;;;35.93;27.47;101653.25;4960172;28;128294;-64
2022/03/07 09:05:54;;;;;;;;;;;;;;;35.77;28.14;101650.19;4961017;28;126437;-64
2022/03/07 09:08:20;;;;;;;;;;;;;;;34.05;29.66;101641.66;4961848;28;115400;-64
2022/03/07 09:10:46;;;;;;;;;;;;;;;34.20;29.88;101643.25;4961075;28;109164;-68
2022/03/07 09:13:12;;;;;;;;;;;;;;;36.58;27.19;101650.63;4960863;28;99019;-69
2022/03/07 09:15:39;;;;;;;;;;;;;;;36.39;27.73;101640.78;4960572;28;111898;-66
2022/03/07 09:18:05;;;;;;;;;;;;;;;33.95;30.15;101634.84;4961952;28;97802;-66
2022/03/07 09:20:31;;;;;;;;;;;;;;;32.55;31.46;101632.88;4959750;28;128026;-66
2022/03/07 09:22:57;;;;;;;;;;;;;;;30.90;32.87;101625.75;4966296;28;122533;-66
2022/03/07 09:25:23;;;;;;;;;;;;;;;30.63;32.32;101613.03;4975445;28;126764;-61
2022/03/07 09:27:50;;;;;;;;;;;;;;;30.41;32.54;101607.19;4981341;28;97916;-67
2022/03/07 09:30:15;;;;;;;;;;;;;;;29.52;33.08;101611.28;4980700;28;98503;-66
2022/03/07 09:32:41;;;;;;;;;;;;;;;28.92;33.21;101606.13;4980166;28;106397;-61
2022/03/07 09:35:09;;;;;;;;;;;;;;;28.57;33.44;101606.16;4979399;28;99199;-66
2022/03/07 09:37:34;;;;;;;;;;;;;;;28.16;33.78;101602.06;4962303;28;98833;-61
2022/03/07 09:40:01;;;;;;;;;;;;;;;29.85;31.61;101605.13;4958957;28;125903;-61
2022/03/07 09:42:27;;;;;;;;;;;;;;;30.77;30.55;101600.16;4960112;28;128333;-70
2022/03/07 09:44:54;;;;;;;;;;;;;;;31.66;30.15;101610.66;4960177;28;97820;-61
2022/03/07 09:47:21;;;;;;;;;;;;;;;31.72;30.31;101600.78;4979947;28;97800;-67
2022/03/07 09:49:47;;;;;;;;;;;;;;;32.89;29.54;101602.69;4979803;28;98110;-66
2022/03/07 09:52:13;;;;;;;;;;;;;;;31.06;31.67;101600.50;4973754;28;98457;-61
2022/03/07 09:54:39;;;;;;;;;;;;;;;32.83;29.81;101593.13;4978782;28;110829;-65
2022/03/07 09:57:05;;;;;;;;;;;;;;;31.51;31.07;101604.16;4961879;28;117494;-62
2022/03/07 09:59:34;;;;;;;;;;;;;;;31.57;30.83;101613.75;4959961;28;98796;-66
2022/03/07 10:02:04;;;;;;;;;;;;;;;31.19;31.15;101601.81;4972195;28;98612;-62
2022/03/07 10:04:31;;;;;;;;;;;;;;;32.59;29.44;101611.34;4941740;28;97947;-61
2022/03/07 10:06:57;;;;;;;;;;;;;;;31.98;30.42;101597.00;4967139;28;97854;-61
2022/03/07 10:09:23;;;;;;;;;;;;;;;31.83;30.41;101595.25;4979860;28;98509;-63
2022/03/07 10:11:53;;;;;;;;;;;;;;;32.26;30.05;101599.19;4961108;28;103986;-63
2022/03/07 10:14:30;;;;;;;;;;;;;;;31.70;30.65;101600.34;4979542;28;98615;-63
2022/03/07 10:16:56;;;;;;;;;;;;;;;31.05;31.31;101596.91;4978626;28;97888;-62
2022/03/07 10:19:22;;;;;;;;;;;;;;;30.27;32.00;101588.31;4978809;28;128726;-67
2022/03/07 10:21:50;;;;;;;;;;;;;;;30.06;31.74;101588.78;4960608;28;127002;-67
2022/03/07 10:24:16;;;;;;;;;;;;;;;29.29;32.77;101584.28;4978664;28;99310;-67
2022/03/07 10:26:42;;;;;;;;;;;;;;;28.79;32.91;101593.56;4960728;28;97954;-67
2022/03/07 10:29:08;;;;;;;;;;;;;;;28.23;33.33;101577.28;4960473;28;127402;-62
2022/03/07 10:31:34;;;;;;;;;;;;;;;27.61;33.78;101583.28;4979607;28;120387;-65
2022/03/07 10:34:04;;;;;;;;;;;;;;;27.00;33.96;101575.31;4927844;28;117331;-62
2022/03/07 10:36:36;;;;;;;;;;;;;;;26.62;34.25;101573.84;4959328;28;98121;-67
2022/03/07 10:39:08;;;;;;;;;;;;;;;26.23;34.69;101571.81;4942173;28;98645;-67
2022/03/07 10:41:45;;;;;;;;;;;;;;;25.76;34.92;101575.81;4959436;28;98540;-63
2022/03/07 10:44:23;;;;;;;;;;;;;;;25.30;35.09;101565.97;4971593;28;121022;-67
2022/03/07 10:46:49;;;;;;;;;;;;;;;24.69;35.72;101575.56;4959398;28;97848;-63
2022/03/07 10:49:17;;;;;;;;;;;;;;;24.38;36.02;101575.13;4958527;28;128511;-63
2022/03/07 10:51:52;;;;;;;;;;;;;;;25.51;34.52;101561.19;4962770;28;120108;-67
2022/03/07 10:54:19;;;;;;;;;;;;;;;26.11;33.96;101558.81;4980196;28;98673;-66
2022/03/07 10:56:49;;;;;;;;;;;;;;;26.59;33.87;101555.16;4982801;28;98252;-67
2022/03/07 10:59:28;;;;;;;;;;;;;;;27.15;33.76;101557.97;4982031;28;120615;-63
2022/03/07 11:02:03;;;;;;;;;;;;;;;27.75;33.53;101554.41;4980275;28;98425;-67
2022/03/07 11:04:29;;;;;;;;;;;;;;;28.03;33.64;101552.28;4982946;28;97908;-62
2022/03/07 11:06:55;;;;;;;;;;;;;;;28.90;33.12;101552.97;4966914;28;98019;-67
2022/03/07 11:09:21;;;;;;;;;;;;;;;29.31;33.12;101547.81;4962002;28;127494;-67
2022/03/07 11:11:48;;;;;;;;;;;;;;;29.65;32.69;101553.59;4956890;28;128812;-67
2022/03/07 11:14:14;;;;;;;;;;;;;;;30.01;32.74;101550.19;4944540;28;117033;-63
2022/03/07 11:16:40;;;;;;;;;;;;;;;30.36;32.89;101557.47;4961190;28;117453;-63
2022/03/07 11:19:07;;;;;;;;;;;;;;;30.73;32.76;101548.38;4944959;28;98430;-67
2022/03/07 11:21:33;;;;;;;;;;;;;;;30.95;32.68;101549.47;4962422;28;98453;-63
2022/03/07 11:23:59;;;;;;;;;;;;;;;31.35;32.19;101548.69;4960333;28;126729;-63
2022/03/07 11:26:26;;;;;;;;;;;;;;;31.69;31.95;101545.81;4962009;28;97843;-67
2022/03/07 11:28:52;;;;;;;;;;;;;;;32.05;31.79;101538.53;4963364;28;99181;-67
2022/03/07 11:31:28;;;;;;;;;;;;;;;32.29;31.41;101530.69;4964048;28;98089;-63
2022/03/07 11:33:55;;;;;;;;;;;;;;;32.54;31.23;101530.81;4983237;28;97883;-67
2022/03/07 11:36:22;;;;;;;;;;;;;;;32.62;31.49;101524.88;4981630;28;97961;-66
2022/03/07 11:38:52;;;;;;;;;;;;;;;32.66;31.65;101519.28;4981967;28;99447;-67
2022/03/07 11:41:32;;;;;;;;;;;;;;;32.88;31.29;101518.16;4981492;28;98068;-67
2022/03/07 11:44:00;;;;;;;;;;;;;;;33.04;31.01;101511.44;4981891;28;99257;-67
2022/03/07 11:46:31;;;;;;;;;;;;;;;33.24;30.48;101507.88;4969709;28;97784;-62
2022/03/07 11:48:57;;;;;;;;;;;;;;;33.64;30.65;101510.69;4962865;28;98125;-67
2022/03/07 11:51:25;;;;;;;;;;;;;;;33.87;30.28;101508.25;4961352;28;128450;-63
2022/03/07 11:53:51;;;;;;;;;;;;;;;33.73;30.21;101511.09;4953345;28;97950;-66
2022/03/07 11:56:31;;;;;;;;;;;;;;;33.68;30.46;101506.69;4979432;28;111331;-62
2022/03/07 11:58:58;;;;;;;;;;;;;;;33.00;30.99;101503.06;4966056;28;98761;-62
2022/03/07 12:01:25;;;;;;;;;;;;;;;32.04;31.98;101495.13;4973430;28;99196;-62
2022/03/07 12:03:51;;;;;;;;;;;;;;;31.41;32.04;101490.69;4980095;27;98250;-67
2022/03/07 12:06:19;;;;;;;;;;;;;;;30.78;32.20;101489.66;4981714;28;97997;-67
2022/03/07 12:08:56;;;;;;;;;;;;;;;30.19;32.29;101488.53;4980959;28;98717;-67
2022/03/07 12:11:35;;;;;;;;;;;;;;;30.62;31.74;101486.28;4962961;28;98876;-62
2022/03/07 12:14:03;;;;;;;;;;;;;;;30.31;31.92;101474.41;4979511;28;98094;-62
2022/03/07 12:16:31;;;;;;;;;;;;;;;30.07;31.50;101473.66;4975461;28;98297;-62
2022/03/07 12:19:22;;;;;;;;;;;;;;;30.30;31.32;101464.44;4961953;28;99374;-66
2022/03/07 12:21:48;;;;;;;;;;;;;;;29.26;32.10;101456.53;4980496;28;99039;-67
2022/03/07 12:24:15;;;;;;;;;;;;;;;28.63;32.80;101461.34;4961650;28;128073;-62
2022/03/07 12:26:56;;;;;;;;;;;;;;;28.53;32.14;101467.50;4976927;28;107718;-63
2022/03/07 12:29:26;;;;;;;;;;;;;;;27.83;32.85;101465.56;4963730;28;98531;-62